Time;durP1;ratioP1;P1;durP2;ratioP2;P2;SDS_P1;SDS_P2;PMS_P1;PMS_P2;Temp;Humidity;BMP_temperature;BMP_pressure;BME280_temperature;BME280_humidity;BME280_pressure;Samples;Min_cycle;Max_cycle;Signal;HPM_P1;HPM_P2
2023/12/17 00:01:53;;;;;;;13.83;3.20;;;6.80;99.90;;;;;;4212706;28;20532;-74
2023/12/17 00:03:55;;;;;;;14.10;3.43;;;6.80;99.90;;;;;;4211929;28;20205;-76
2023/12/17 00:05:56;;;;;;;11.93;3.07;;;6.80;99.90;;;;;;4211198;28;20274;-76
2023/12/17 00:07:58;;;;;;;15.77;3.23;;;6.80;99.90;;;;;;4210063;28;20196;-75
2023/12/17 00:10:01;;;;;;;8.90;2.90;;;6.80;99.90;;;;;;4212568;28;20684;-74
2023/12/17 00:12:04;;;;;;;7.73;2.97;;;6.80;99.90;;;;;;4213280;28;20228;-74
2023/12/17 00:14:06;;;;;;;12.57;3.90;;;6.70;99.90;;;;;;4211739;28;20290;-77
2023/12/17 00:16:08;;;;;;;9.80;2.87;;;6.70;99.90;;;;;;4210874;28;20206;-76
2023/12/17 00:18:11;;;;;;;8.47;2.90;;;6.70;99.90;;;;;;4212065;28;20225;-75
2023/12/17 00:20:13;;;;;;;10.13;3.07;;;6.60;99.90;;;;;;4211588;28;20209;-78
2023/12/17 00:22:17;;;;;;;11.90;3.03;;;6.60;99.90;;;;;;4211686;28;20220;-75
2023/12/17 00:24:19;;;;;;;12.90;3.60;;;6.60;99.90;;;;;;4211637;28;20201;-75
2023/12/17 00:26:22;;;;;;;12.43;3.33;;;6.60;99.90;;;;;;4211415;28;20626;-76
2023/12/17 00:28:24;;;;;;;10.27;3.40;;;6.60;99.90;;;;;;4191941;28;20614;-75
2023/12/17 00:30:26;;;;;;;13.07;4.10;;;6.50;99.90;;;;;;4209793;28;20216;-75
2023/12/17 00:32:28;;;;;;;10.37;3.10;;;6.50;99.90;;;;;;4212114;28;20259;-76
2023/12/17 00:34:30;;;;;;;13.17;3.23;;;6.50;99.90;;;;;;4211280;28;20254;-76
2023/12/17 00:36:32;;;;;;;13.73;3.30;;;6.50;99.90;;;;;;4211624;28;20565;-74
2023/12/17 00:38:34;;;;;;;10.17;2.97;;;6.50;99.90;;;;;;4211842;28;20236;-75
2023/12/17 00:40:36;;;;;;;11.47;3.20;;;6.40;99.90;;;;;;4211242;28;20228;-73
2023/12/17 00:42:39;;;;;;;14.87;3.47;;;6.40;99.90;;;;;;4209918;28;20201;-72
2023/12/17 00:44:42;;;;;;;14.60;2.97;;;6.40;99.90;;;;;;4208296;28;20218;-73
2023/12/17 00:46:44;;;;;;;14.70;2.97;;;6.40;99.90;;;;;;4211274;28;20209;-72
2023/12/17 00:48:46;;;;;;;10.13;3.23;;;6.40;99.90;;;;;;4210178;28;20563;-73
2023/12/17 00:50:48;;;;;;;11.87;3.87;;;6.40;99.90;;;;;;4210755;28;20517;-75
2023/12/17 00:52:50;;;;;;;10.67;3.00;;;6.30;99.90;;;;;;4210403;28;20684;-75
2023/12/17 00:54:52;;;;;;;11.03;3.53;;;6.30;99.90;;;;;;4210609;28;20462;-75
2023/12/17 00:56:56;;;;;;;6.03;2.77;;;6.30;99.90;;;;;;4210000;28;20213;-75
2023/12/17 00:58:59;;;;;;;10.90;2.50;;;6.30;99.90;;;;;;4212336;28;20231;-75
2023/12/17 01:01:01;;;;;;;13.70;3.40;;;6.30;99.90;;;;;;4211090;28;20876;-74
2023/12/17 01:03:03;;;;;;;9.43;3.17;;;6.20;99.90;;;;;;4211113;28;20462;-74
2023/12/17 01:05:06;;;;;;;10.00;2.90;;;6.30;99.90;;;;;;4192535;28;20459;-74
2023/12/17 01:07:08;;;;;;;17.17;2.87;;;6.30;99.90;;;;;;4210466;28;20613;-73
2023/12/17 01:09:10;;;;;;;10.77;2.87;;;6.20;99.90;;;;;;4210144;28;20962;-73
2023/12/17 01:11:12;;;;;;;13.60;2.97;;;6.20;99.90;;;;;;4212256;28;20494;-73
2023/12/17 01:13:14;;;;;;;9.20;3.13;;;6.30;99.90;;;;;;4211497;28;20997;-74
2023/12/17 01:15:17;;;;;;;9.43;3.10;;;6.20;99.90;;;;;;4209791;28;20205;-73
2023/12/17 01:17:19;;;;;;;9.33;3.50;;;6.20;99.90;;;;;;4210884;28;20454;-73
2023/12/17 01:19:21;;;;;;;9.47;3.10;;;6.30;99.90;;;;;;4210912;28;20494;-73
2023/12/17 01:21:23;;;;;;;11.20;3.23;;;6.20;99.90;;;;;;4211107;28;20466;-72
2023/12/17 01:23:25;;;;;;;9.17;2.80;;;6.10;99.90;;;;;;4211198;28;21104;-71
2023/12/17 01:25:27;;;;;;;11.37;3.03;;;6.20;99.90;;;;;;4211653;28;20524;-73
2023/12/17 01:27:28;;;;;;;9.60;3.30;;;6.10;99.90;;;;;;4211269;28;20209;-72
2023/12/17 01:29:30;;;;;;;14.10;3.77;;;6.10;99.90;;;;;;4212886;28;20607;-73
2023/12/17 01:31:33;;;;;;;12.63;3.67;;;6.10;99.90;;;;;;4212624;28;20259;-73
2023/12/17 01:33:35;;;;;;;8.87;3.00;;;6.10;99.90;;;;;;4213896;28;20207;-72
2023/12/17 01:35:37;;;;;;;12.33;3.43;;;6.10;99.90;;;;;;4214095;28;20451;-75
2023/12/17 01:37:38;;;;;;;10.87;4.00;;;6.10;99.90;;;;;;4211973;28;20221;-74
2023/12/17 01:39:40;;;;;;;9.77;2.97;;;6.10;99.90;;;;;;4213547;28;20258;-73
2023/12/17 01:41:42;;;;;;;11.27;3.37;;;6.00;99.90;;;;;;4217688;28;20251;-76
2023/12/17 01:43:44;;;;;;;8.80;3.20;;;6.00;99.90;;;;;;4213798;28;20895;-71
2023/12/17 01:45:45;;;;;;;10.43;3.90;;;6.00;99.90;;;;;;4214652;28;20442;-71
2023/12/17 01:47:49;;;;;;;6.47;2.70;;;6.00;99.90;;;;;;4211771;28;20500;-74
2023/12/17 01:49:51;;;;;;;9.70;3.37;;;6.00;99.90;;;;;;4210904;28;20439;-72
2023/12/17 01:51:54;;;;;;;8.23;3.20;;;6.00;99.90;;;;;;4214865;28;20228;-74
2023/12/17 01:53:56;;;;;;;13.87;3.00;;;6.00;99.90;;;;;;4214655;28;20457;-73
2023/12/17 01:55:58;;;;;;;11.93;3.00;;;6.00;99.90;;;;;;4211587;28;20478;-72
2023/12/17 01:58:00;;;;;;;10.10;3.37;;;6.00;99.90;;;;;;4216453;28;20478;-73
2023/12/17 02:00:03;;;;;;;7.30;2.93;;;6.00;99.90;;;;;;4211791;28;20507;-73
2023/12/17 02:02:05;;;;;;;10.27;3.30;;;5.90;99.90;;;;;;4214894;28;20454;-73
2023/12/17 02:04:09;;;;;;;8.47;3.50;;;5.90;99.90;;;;;;4211821;28;20451;-72
2023/12/17 02:06:11;;;;;;;7.47;3.10;;;5.90;99.90;;;;;;4211689;28;20463;-74
2023/12/17 02:08:13;;;;;;;13.20;3.40;;;5.90;99.90;;;;;;4212372;28;20829;-73
2023/12/17 02:10:16;;;;;;;11.97;3.33;;;5.90;99.90;;;;;;4213413;28;20449;-74
2023/12/17 02:12:26;;;;;;;11.03;3.63;;;5.90;99.90;;;;;;4212933;28;20443;-76
2023/12/17 02:14:28;;;;;;;9.70;3.50;;;5.90;99.90;;;;;;4211275;28;20447;-73
2023/12/17 02:16:32;;;;;;;9.30;3.97;;;5.90;99.90;;;;;;4212147;28;20465;-72
2023/12/17 02:18:34;;;;;;;8.40;3.33;;;5.80;99.90;;;;;;4210963;28;20540;-72
2023/12/17 02:20:39;;;;;;;13.20;3.77;;;5.90;99.90;;;;;;4215508;28;20447;-75
2023/12/17 02:22:44;;;;;;;11.07;3.30;;;5.80;99.90;;;;;;4216041;28;21038;-76
2023/12/17 02:24:47;;;;;;;10.23;4.17;;;5.80;99.90;;;;;;4207750;28;20441;-73
2023/12/17 02:26:49;;;;;;;9.50;3.73;;;5.80;99.90;;;;;;4210243;28;20447;-74
2023/12/17 02:28:51;;;;;;;10.13;3.40;;;5.80;99.90;;;;;;4212771;28;20447;-75
2023/12/17 02:30:53;;;;;;;8.43;3.43;;;5.80;99.90;;;;;;4217025;28;20503;-75
2023/12/17 02:32:55;;;;;;;12.23;3.50;;;5.80;99.90;;;;;;4213466;28;20941;-72
2023/12/17 02:34:57;;;;;;;8.03;3.73;;;5.80;99.90;;;;;;4218020;28;20457;-72
2023/12/17 02:36:58;;;;;;;11.93;3.87;;;5.80;99.90;;;;;;4191753;28;20447;-72
2023/12/17 02:39:01;;;;;;;7.33;3.10;;;5.80;99.90;;;;;;4213717;28;20482;-70
2023/12/17 02:41:04;;;;;;;13.13;3.77;;;5.80;99.90;;;;;;4213078;28;20584;-73
2023/12/17 02:43:06;;;;;;;13.47;4.27;;;5.80;99.90;;;;;;4211946;28;20904;-72
2023/12/17 02:45:09;;;;;;;9.97;3.63;;;5.80;99.90;;;;;;4215123;28;20553;-71
2023/12/17 02:47:11;;;;;;;10.10;3.90;;;5.80;99.90;;;;;;4210968;28;20470;-73
2023/12/17 02:49:13;;;;;;;8.00;3.90;;;5.80;99.90;;;;;;4211716;28;20965;-72
2023/12/17 02:51:15;;;;;;;10.77;3.80;;;5.80;99.90;;;;;;4211849;28;20956;-72
2023/12/17 02:53:16;;;;;;;7.63;3.37;;;5.90;99.90;;;;;;4209487;28;20446;-74
2023/12/17 02:55:18;;;;;;;13.40;4.03;;;5.80;99.90;;;;;;4210750;28;20434;-72
2023/12/17 02:57:24;;;;;;;7.60;3.33;;;5.90;99.90;;;;;;4214312;28;20252;-73
2023/12/17 02:59:26;;;;;;;14.17;3.97;;;5.90;99.90;;;;;;4214609;28;20470;-73
2023/12/17 03:01:28;;;;;;;7.27;3.40;;;5.90;99.90;;;;;;4217935;28;20881;-74
2023/12/17 03:03:30;;;;;;;8.50;3.40;;;5.80;99.90;;;;;;4221702;28;20451;-74
2023/12/17 03:05:32;;;;;;;9.77;3.97;;;5.90;99.90;;;;;;4215393;28;20972;-74
2023/12/17 03:07:33;;;;;;;7.57;3.10;;;5.90;99.90;;;;;;4208076;28;20459;-75
2023/12/17 03:09:35;;;;;;;11.30;4.43;;;5.80;99.90;;;;;;4217897;28;20201;-73
2023/12/17 03:11:37;;;;;;;7.63;3.53;;;5.90;99.90;;;;;;4218055;28;20220;-73
2023/12/17 03:13:40;;;;;;;11.60;3.47;;;5.90;99.90;;;;;;4214957;28;20450;-76
2023/12/17 03:15:42;;;;;;;9.03;3.47;;;5.80;99.90;;;;;;4217312;28;20979;-72
2023/12/17 03:17:44;;;;;;;9.43;3.47;;;5.90;99.90;;;;;;4217143;28;20254;-72
2023/12/17 03:19:46;;;;;;;12.40;3.83;;;5.90;99.90;;;;;;4215376;28;20217;-72
2023/12/17 03:21:48;;;;;;;10.27;3.83;;;5.90;99.90;;;;;;4216622;28;20462;-75
2023/12/17 03:23:50;;;;;;;10.50;3.80;;;5.90;99.90;;;;;;4221188;28;20593;-72
2023/12/17 03:25:52;;;;;;;10.63;4.00;;;5.90;99.90;;;;;;4217543;28;20467;-74
2023/12/17 03:27:54;;;;;;;9.27;3.87;;;5.90;99.90;;;;;;4217817;28;20435;-74
2023/12/17 03:29:57;;;;;;;12.00;3.67;;;5.90;99.90;;;;;;4215755;28;20492;-72
2023/12/17 03:32:02;;;;;;;10.47;3.57;;;5.90;99.90;;;;;;4216014;28;20981;-72
2023/12/17 03:34:04;;;;;;;12.47;4.10;;;6.00;99.90;;;;;;4214038;28;20201;-72
2023/12/17 03:36:07;;;;;;;10.20;3.50;;;5.90;99.90;;;;;;4212624;28;20684;-73
2023/12/17 03:38:09;;;;;;;7.20;3.73;;;5.90;99.90;;;;;;4216459;28;20447;-73
2023/12/17 03:40:13;;;;;;;11.57;3.77;;;5.90;99.90;;;;;;4213290;28;20574;-75
2023/12/17 03:42:14;;;;;;;10.40;3.97;;;6.00;99.90;;;;;;4217390;28;20249;-76
2023/12/17 03:44:16;;;;;;;10.13;3.73;;;5.90;99.90;;;;;;4214129;28;20466;-74
2023/12/17 03:46:18;;;;;;;8.80;3.63;;;6.00;99.90;;;;;;4213845;28;20212;-72
2023/12/17 03:48:20;;;;;;;9.77;3.50;;;5.90;99.90;;;;;;4212391;28;20865;-72
2023/12/17 03:50:22;;;;;;;6.97;3.33;;;5.90;99.90;;;;;;4212164;28;20501;-73
2023/12/17 03:52:23;;;;;;;8.97;3.50;;;6.00;99.90;;;;;;4212902;28;20578;-73
2023/12/17 03:54:25;;;;;;;8.77;3.47;;;5.90;99.90;;;;;;4216218;28;20197;-74
2023/12/17 03:56:27;;;;;;;10.80;3.30;;;6.00;99.90;;;;;;4217867;28;20798;-74
2023/12/17 03:58:30;;;;;;;10.17;3.50;;;6.00;99.90;;;;;;4215960;28;20990;-73
2023/12/17 04:00:32;;;;;;;9.67;3.43;;;6.00;99.90;;;;;;4215380;28;20529;-73
2023/12/17 04:02:36;;;;;;;8.73;3.17;;;6.00;99.90;;;;;;4220492;28;20258;-72
2023/12/17 04:04:38;;;;;;;8.17;3.50;;;6.00;99.90;;;;;;4207639;28;20254;-75
2023/12/17 04:06:41;;;;;;;8.53;4.20;;;6.00;99.90;;;;;;4216304;28;20431;-74
2023/12/17 04:08:42;;;;;;;8.40;3.70;;;6.00;99.90;;;;;;4209472;28;20184;-72
2023/12/17 04:10:44;;;;;;;12.07;3.47;;;6.00;99.90;;;;;;4215223;28;20268;-73
2023/12/17 04:12:46;;;;;;;7.43;3.37;;;6.00;99.90;;;;;;4214522;28;20258;-72
2023/12/17 04:14:48;;;;;;;8.57;3.60;;;6.00;99.90;;;;;;4213027;28;20488;-73
2023/12/17 04:16:50;;;;;;;10.87;3.63;;;6.00;99.90;;;;;;4217025;28;20439;-73
2023/12/17 04:18:53;;;;;;;9.63;3.60;;;6.00;99.90;;;;;;4211518;28;20494;-74
2023/12/17 04:20:55;;;;;;;12.27;4.03;;;6.00;99.90;;;;;;4216427;28;20294;-72
2023/12/17 04:22:57;;;;;;;8.97;3.87;;;6.00;99.90;;;;;;4221190;28;20504;-73
2023/12/17 04:24:59;;;;;;;12.20;4.13;;;6.00;99.90;;;;;;4216238;28;20458;-73
2023/12/17 04:27:01;;;;;;;16.30;4.17;;;6.00;99.90;;;;;;4211845;28;20586;-74
2023/12/17 04:29:03;;;;;;;9.07;3.87;;;6.00;99.90;;;;;;4215210;28;20443;-74
2023/12/17 04:31:06;;;;;;;8.80;3.63;;;6.10;99.90;;;;;;4213257;28;20324;-75
2023/12/17 04:33:08;;;;;;;9.83;4.70;;;6.10;99.90;;;;;;4221276;28;20455;-73
2023/12/17 04:35:10;;;;;;;13.47;4.10;;;6.10;99.90;;;;;;4215877;28;20209;-72
2023/12/17 04:37:12;;;;;;;8.43;4.00;;;6.10;99.90;;;;;;4218088;28;20447;-73
2023/12/17 04:39:15;;;;;;;7.57;4.13;;;6.10;99.90;;;;;;4220294;28;20530;-75
2023/12/17 04:41:17;;;;;;;11.70;3.67;;;6.10;99.90;;;;;;4215699;28;20493;-73
2023/12/17 04:43:20;;;;;;;8.67;3.50;;;6.10;99.90;;;;;;4213287;28;20451;-72
2023/12/17 04:45:21;;;;;;;11.03;4.63;;;6.10;99.90;;;;;;4217831;28;20243;-73
2023/12/17 04:47:23;;;;;;;9.20;3.83;;;6.10;99.90;;;;;;4215407;28;20205;-73
2023/12/17 04:49:25;;;;;;;6.60;3.60;;;6.10;99.90;;;;;;4215816;28;20482;-73
2023/12/17 04:51:29;;;;;;;11.83;3.97;;;6.10;99.90;;;;;;4216507;28;20467;-75
2023/12/17 04:53:31;;;;;;;7.30;4.00;;;6.10;99.90;;;;;;4215747;28;20452;-75
2023/12/17 04:55:33;;;;;;;8.83;3.93;;;6.10;99.90;;;;;;4216882;28;20455;-73
2023/12/17 04:57:35;;;;;;;8.53;4.10;;;6.30;99.90;;;;;;4219419;28;20208;-75
2023/12/17 04:59:36;;;;;;;5.83;4.00;;;6.20;99.90;;;;;;4214646;28;20217;-76
2023/12/17 05:01:38;;;;;;;10.13;4.00;;;6.20;99.90;;;;;;4217300;28;20210;-73
2023/12/17 05:03:40;;;;;;;5.80;3.70;;;6.10;99.90;;;;;;4212176;28;20202;-74
2023/12/17 05:05:42;;;;;;;7.97;3.87;;;6.20;99.90;;;;;;4197070;28;20309;-74
2023/12/17 05:07:45;;;;;;;9.70;4.00;;;6.20;99.90;;;;;;4212602;28;20303;-74
2023/12/17 05:09:47;;;;;;;8.80;3.63;;;6.20;99.90;;;;;;4215321;28;20450;-75
2023/12/17 05:11:49;;;;;;;7.87;4.17;;;6.20;99.90;;;;;;4213069;28;20233;-75
2023/12/17 05:13:51;;;;;;;8.57;4.43;;;6.10;99.90;;;;;;4218420;28;20831;-73
2023/12/17 05:15:53;;;;;;;8.33;3.80;;;6.20;99.90;;;;;;4217454;28;20254;-77
2023/12/17 05:17:55;;;;;;;11.73;4.00;;;6.20;99.90;;;;;;4216219;28;20451;-73
2023/12/17 05:19:57;;;;;;;7.07;3.83;;;6.20;99.90;;;;;;4217801;28;20817;-74
2023/12/17 05:21:59;;;;;;;6.97;3.50;;;6.20;99.90;;;;;;4213898;28;21463;-73
2023/12/17 05:24:04;;;;;;;10.00;3.53;;;6.20;99.90;;;;;;4214122;28;20495;-73
2023/12/17 05:26:06;;;;;;;5.97;3.43;;;6.20;99.90;;;;;;4207963;28;20217;-73
2023/12/17 05:28:09;;;;;;;6.23;3.50;;;6.20;99.90;;;;;;4213710;28;20571;-74
2023/12/17 05:30:12;;;;;;;9.57;3.93;;;6.20;99.90;;;;;;4211500;28;20255;-74
2023/12/17 05:32:13;;;;;;;9.47;3.80;;;6.20;99.90;;;;;;4211939;28;20213;-75
2023/12/17 05:34:15;;;;;;;7.47;3.80;;;6.20;99.90;;;;;;4211089;28;20480;-73
2023/12/17 05:36:17;;;;;;;7.67;3.73;;;6.20;99.90;;;;;;4213343;28;20201;-73
2023/12/17 05:38:21;;;;;;;10.87;4.33;;;6.20;99.90;;;;;;4213654;28;20201;-73
2023/12/17 05:40:24;;;;;;;8.37;4.37;;;6.20;99.90;;;;;;4210646;28;20315;-73
2023/12/17 05:42:27;;;;;;;8.00;3.87;;;6.20;99.90;;;;;;4210268;28;21012;-75
2023/12/17 05:44:29;;;;;;;10.50;4.57;;;6.20;99.90;;;;;;4213024;28;20620;-72
2023/12/17 05:46:30;;;;;;;9.23;4.23;;;6.20;99.90;;;;;;4215322;28;20451;-74
2023/12/17 05:48:32;;;;;;;12.20;4.17;;;6.10;99.90;;;;;;4213632;28;20197;-76
2023/12/17 05:50:34;;;;;;;8.10;3.83;;;6.20;99.90;;;;;;4212656;28;20266;-77
2023/12/17 05:52:36;;;;;;;9.37;4.33;;;6.20;99.90;;;;;;4217772;28;20480;-74
2023/12/17 05:54:38;;;;;;;8.67;4.43;;;6.20;99.90;;;;;;4213278;28;20227;-74
2023/12/17 05:56:41;;;;;;;8.07;4.17;;;6.20;99.90;;;;;;4210407;28;20292;-73
2023/12/17 05:58:44;;;;;;;8.60;4.20;;;6.20;99.90;;;;;;4213256;28;20488;-73
2023/12/17 06:00:46;;;;;;;7.63;4.10;;;6.20;99.90;;;;;;4210826;28;20479;-71
2023/12/17 06:02:48;;;;;;;12.03;4.20;;;6.10;99.90;;;;;;4217399;28;20654;-73
2023/12/17 06:04:50;;;;;;;8.33;3.87;;;6.20;99.90;;;;;;4214103;28;20205;-74
2023/12/17 06:06:52;;;;;;;7.43;3.60;;;6.20;99.90;;;;;;4210671;28;20446;-73
2023/12/17 06:08:52;;;;;;;9.80;4.07;;;6.10;99.90;;;;;;4214168;28;20208;-73
2023/12/17 06:10:54;;;;;;;6.70;3.97;;;6.20;99.90;;;;;;4214849;28;20523;-73
2023/12/17 06:12:58;;;;;;;7.20;3.83;;;6.20;99.90;;;;;;4205515;28;20696;-73
2023/12/17 06:15:00;;;;;;;11.27;4.10;;;6.20;99.90;;;;;;4216209;28;20217;-74
2023/12/17 06:17:01;;;;;;;8.83;4.33;;;6.20;99.90;;;;;;4214898;28;20200;-74
2023/12/17 06:19:03;;;;;;;9.47;4.40;;;6.10;99.90;;;;;;4215237;28;21060;-74
2023/12/17 06:21:05;;;;;;;8.13;4.07;;;6.20;99.90;;;;;;4214967;28;20988;-75
2023/12/17 06:23:09;;;;;;;11.67;4.90;;;6.20;99.90;;;;;;4193640;28;20436;-72
2023/12/17 06:25:11;;;;;;;11.87;4.43;;;6.10;99.90;;;;;;4216948;28;20201;-74
2023/12/17 06:27:16;;;;;;;8.03;4.00;;;6.20;99.90;;;;;;4215271;28;20435;-72
2023/12/17 06:29:20;;;;;;;9.07;4.63;;;6.20;99.90;;;;;;4207184;28;21002;-72
2023/12/17 06:31:22;;;;;;;12.50;4.77;;;6.20;99.90;;;;;;4215506;28;20470;-74
2023/12/17 06:33:24;;;;;;;9.37;4.87;;;6.10;99.90;;;;;;4218675;28;20227;-73
2023/12/17 06:35:26;;;;;;;10.10;4.57;;;6.10;99.90;;;;;;4219428;28;20856;-74
2023/12/17 06:37:27;;;;;;;12.57;5.10;;;6.20;99.90;;;;;;4217134;28;20459;-74
2023/12/17 06:39:29;;;;;;;9.87;5.00;;;6.10;99.90;;;;;;4216327;28;20278;-75
2023/12/17 06:41:31;;;;;;;14.37;4.97;;;6.20;99.90;;;;;;4217533;28;21022;-73
2023/12/17 06:43:36;;;;;;;9.43;5.47;;;6.20;99.90;;;;;;4218964;28;20732;-74
2023/12/17 06:45:40;;;;;;;12.63;5.20;;;6.20;99.90;;;;;;4216316;28;20251;-72
2023/12/17 06:47:41;;;;;;;12.77;6.17;;;6.20;99.90;;;;;;4210204;28;20454;-74
2023/12/17 06:49:42;;;;;;;13.27;5.57;;;6.20;99.90;;;;;;4215178;28;20520;-73
2023/12/17 06:51:44;;;;;;;10.80;4.80;;;6.20;99.90;;;;;;4217539;28;20458;-74
2023/12/17 06:53:46;;;;;;;10.60;5.37;;;6.20;99.90;;;;;;4217671;28;20263;-73
2023/12/17 06:55:47;;;;;;;10.47;4.43;;;6.20;99.90;;;;;;4199080;28;20603;-73
2023/12/17 06:57:49;;;;;;;9.93;4.60;;;6.20;99.90;;;;;;4216318;28;20446;-74
2023/12/17 06:59:51;;;;;;;10.57;4.97;;;6.20;99.90;;;;;;4215309;28;20229;-77
2023/12/17 07:01:54;;;;;;;11.50;4.60;;;6.20;99.90;;;;;;4213273;28;20247;-74
2023/12/17 07:03:56;;;;;;;11.13;4.63;;;6.20;99.90;;;;;;4213068;28;20454;-75
2023/12/17 07:05:58;;;;;;;9.13;4.90;;;6.20;99.90;;;;;;4214975;28;20439;-74
2023/12/17 07:08:00;;;;;;;7.00;4.13;;;6.20;99.90;;;;;;4198288;28;20479;-76
2023/12/17 07:10:02;;;;;;;8.47;4.67;;;6.20;99.90;;;;;;4214416;28;20515;-77
2023/12/17 07:12:04;;;;;;;8.23;4.87;;;6.20;99.90;;;;;;4213542;28;20535;-74
2023/12/17 07:14:06;;;;;;;8.30;4.60;;;6.20;99.90;;;;;;4213042;28;20259;-74
2023/12/17 07:16:10;;;;;;;8.27;5.03;;;6.20;99.90;;;;;;4214216;28;20723;-74
2023/12/17 07:18:13;;;;;;;8.67;4.93;;;6.10;99.90;;;;;;4218058;28;20455;-76
2023/12/17 07:20:15;;;;;;;10.83;5.03;;;6.10;99.90;;;;;;4214603;28;20852;-74
2023/12/17 07:22:22;;;;;;;11.17;4.53;;;6.10;99.90;;;;;;4218138;28;20462;-73
2023/12/17 07:24:25;;;;;;;9.33;4.20;;;6.10;99.90;;;;;;4200225;28;20455;-74
2023/12/17 07:26:27;;;;;;;10.90;5.47;;;6.10;99.90;;;;;;4214540;28;20217;-75
2023/12/17 07:28:28;;;;;;;10.77;5.40;;;6.10;99.90;;;;;;4214272;28;20676;-74
2023/12/17 07:30:31;;;;;;;9.27;4.87;;;6.10;99.90;;;;;;4220263;28;20198;-74
2023/12/17 07:32:32;;;;;;;9.40;4.63;;;6.10;99.90;;;;;;4216965;28;20221;-76
2023/12/17 07:34:35;;;;;;;9.63;4.63;;;6.10;99.90;;;;;;4219553;28;20247;-73
2023/12/17 07:36:37;;;;;;;11.30;5.27;;;6.10;99.90;;;;;;4217466;28;20205;-73
2023/12/17 07:38:39;;;;;;;10.47;5.13;;;6.10;99.90;;;;;;4217854;28;20664;-73
2023/12/17 07:40:41;;;;;;;9.90;5.30;;;6.10;99.90;;;;;;4215435;28;20249;-75
2023/12/17 07:42:43;;;;;;;9.67;5.70;;;6.10;99.90;;;;;;4216729;28;20201;-72
2023/12/17 07:44:47;;;;;;;12.27;6.13;;;6.10;99.90;;;;;;4212988;28;20477;-72
2023/12/17 07:46:52;;;;;;;11.87;5.67;;;6.10;99.90;;;;;;4217387;28;20457;-73
2023/12/17 07:48:54;;;;;;;9.83;5.53;;;6.20;99.90;;;;;;4215229;28;20255;-72
2023/12/17 07:50:58;;;;;;;9.60;5.30;;;6.20;99.90;;;;;;4211741;28;20510;-73
2023/12/17 07:53:00;;;;;;;9.20;5.33;;;6.20;99.90;;;;;;4213306;28;20479;-73
2023/12/17 07:55:02;;;;;;;9.97;5.23;;;6.20;99.90;;;;;;4214109;28;20279;-72
2023/12/17 07:57:03;;;;;;;12.73;5.97;;;6.20;99.90;;;;;;4215313;28;20204;-73
2023/12/17 07:59:05;;;;;;;8.17;5.03;;;6.20;99.90;;;;;;4213767;28;20296;-73
2023/12/17 08:01:09;;;;;;;12.00;5.50;;;6.20;99.90;;;;;;4212336;28;20278;-73
2023/12/17 08:03:10;;;;;;;11.50;5.23;;;6.30;99.90;;;;;;4195510;28;20212;-73
2023/12/17 08:05:12;;;;;;;19.30;9.20;;;6.30;99.90;;;;;;4213515;28;20208;-72
2023/12/17 08:07:15;;;;;;;10.37;5.53;;;6.30;99.90;;;;;;4213354;28;20224;-72
2023/12/17 08:09:17;;;;;;;9.20;5.17;;;6.30;99.90;;;;;;4213127;28;20201;-73
2023/12/17 08:11:19;;;;;;;10.40;5.60;;;6.30;99.90;;;;;;4211441;28;20239;-74
2023/12/17 08:13:21;;;;;;;9.87;5.33;;;6.30;99.90;;;;;;4213992;28;20521;-72
2023/12/17 08:15:22;;;;;;;8.50;5.10;;;6.30;99.90;;;;;;4194287;28;20205;-74
2023/12/17 08:17:24;;;;;;;10.27;5.63;;;6.30;99.90;;;;;;4211613;28;20255;-73
2023/12/17 08:19:27;;;;;;;9.80;5.67;;;6.30;99.90;;;;;;4213840;28;20263;-74
2023/12/17 08:21:29;;;;;;;9.43;5.43;;;6.30;99.90;;;;;;4211771;28;20845;-74
2023/12/17 08:23:32;;;;;;;15.50;5.83;;;6.30;99.90;;;;;;4211456;28;20794;-74
2023/12/17 08:25:38;;;;;;;12.27;5.83;;;6.30;99.90;;;;;;4215023;28;20213;-73
2023/12/17 08:27:42;;;;;;;10.50;5.17;;;6.40;99.90;;;;;;4193173;28;20592;-74
2023/12/17 08:29:47;;;;;;;9.00;5.23;;;6.40;99.90;;;;;;4215709;28;20193;-73
2023/12/17 08:31:52;;;;;;;10.27;5.80;;;6.40;99.90;;;;;;4214567;28;20810;-74
2023/12/17 08:33:53;;;;;;;8.47;5.10;;;6.50;99.90;;;;;;4215166;28;20291;-73
2023/12/17 08:35:55;;;;;;;9.37;5.50;;;6.50;99.90;;;;;;4217849;28;20847;-74
2023/12/17 08:38:03;;;;;;;10.13;5.33;;;6.50;99.90;;;;;;4216268;28;20587;-74
2023/12/17 08:40:07;;;;;;;9.00;5.37;;;6.50;99.90;;;;;;4216346;28;20474;-73
2023/12/17 08:42:09;;;;;;;10.70;5.33;;;6.50;99.90;;;;;;4214474;28;20235;-73
2023/12/17 08:44:11;;;;;;;12.47;5.67;;;6.50;99.90;;;;;;4212878;28;20205;-74
2023/12/17 08:46:12;;;;;;;9.53;5.07;;;6.50;99.90;;;;;;4217751;28;20205;-73
2023/12/17 08:48:14;;;;;;;10.50;5.13;;;6.50;99.90;;;;;;4212213;28;20212;-72
2023/12/17 08:50:16;;;;;;;12.30;5.30;;;6.60;99.90;;;;;;4213323;28;20251;-72
2023/12/17 08:52:18;;;;;;;8.20;5.20;;;6.60;99.90;;;;;;4214327;28;20225;-73
2023/12/17 08:54:20;;;;;;;9.50;5.57;;;6.60;99.90;;;;;;4216678;28;20249;-73
2023/12/17 08:56:23;;;;;;;12.33;5.93;;;6.60;99.90;;;;;;4213718;28;20197;-74
2023/12/17 08:58:24;;;;;;;11.10;5.57;;;6.60;99.90;;;;;;4214352;28;20205;-73
2023/12/17 09:00:26;;;;;;;9.83;6.20;;;6.60;99.90;;;;;;4210080;28;20217;-74
2023/12/17 09:02:28;;;;;;;10.57;5.67;;;6.60;99.90;;;;;;4216863;28;20257;-74
2023/12/17 09:04:30;;;;;;;10.47;5.63;;;6.70;99.90;;;;;;4215593;28;20212;-74
2023/12/17 09:06:32;;;;;;;12.77;5.90;;;6.70;99.90;;;;;;4215520;28;20201;-74
2023/12/17 09:08:34;;;;;;;11.23;5.00;;;6.60;99.90;;;;;;4215274;28;20220;-73
2023/12/17 09:10:36;;;;;;;6.47;4.30;;;6.60;99.90;;;;;;4218274;28;20206;-75
2023/12/17 09:12:39;;;;;;;9.30;4.90;;;6.70;99.90;;;;;;4213559;28;20229;-74
2023/12/17 09:14:41;;;;;;;7.90;4.47;;;6.60;99.90;;;;;;4212889;28;20258;-74
2023/12/17 09:16:43;;;;;;;6.73;4.17;;;6.70;99.90;;;;;;4208890;28;20202;-74
2023/12/17 09:18:45;;;;;;;6.93;4.10;;;6.70;99.90;;;;;;4214782;28;20267;-73
2023/12/17 09:20:47;;;;;;;9.80;4.87;;;6.70;99.90;;;;;;4214773;28;20286;-74
2023/12/17 09:22:49;;;;;;;7.87;4.10;;;6.70;99.90;;;;;;4203854;28;20210;-76
2023/12/17 09:24:51;;;;;;;9.97;5.83;;;6.70;99.90;;;;;;4214167;28;20232;-73
2023/12/17 09:26:52;;;;;;;9.77;4.67;;;6.70;99.90;;;;;;4218169;28;20300;-74
2023/12/17 09:28:55;;;;;;;8.97;4.43;;;6.70;99.90;;;;;;4223174;28;20202;-75
2023/12/17 09:30:57;;;;;;;8.77;4.57;;;6.70;99.90;;;;;;4221883;28;20213;-74
2023/12/17 09:32:59;;;;;;;7.03;4.43;;;6.70;99.90;;;;;;4218942;28;20212;-78
2023/12/17 09:35:01;;;;;;;8.60;4.73;;;6.70;99.90;;;;;;4215955;28;20212;-81
2023/12/17 09:37:03;;;;;;;7.27;4.10;;;6.70;99.90;;;;;;4201152;28;20256;-81
2023/12/17 09:39:04;;;;;;;9.23;4.30;;;6.70;99.90;;;;;;4218436;28;20208;-81
2023/12/17 09:41:07;;;;;;;9.17;4.67;;;6.60;99.90;;;;;;4214385;28;20804;-78
2023/12/17 09:43:10;;;;;;;6.80;4.40;;;6.70;99.90;;;;;;4212595;28;20804;-79
2023/12/17 09:45:15;;;;;;;5.80;3.97;;;6.70;99.90;;;;;;4206304;28;20208;-81
2023/12/17 09:47:17;;;;;;;8.80;4.53;;;6.70;99.90;;;;;;4213548;28;20205;-80
2023/12/17 09:49:19;;;;;;;7.73;4.47;;;6.70;99.90;;;;;;4213871;28;20197;-80
2023/12/17 09:51:24;;;;;;;7.00;4.03;;;6.70;99.90;;;;;;4211647;28;20471;-80
2023/12/17 09:53:26;;;;;;;8.73;4.53;;;6.60;99.90;;;;;;4214031;28;20231;-80
2023/12/17 09:55:28;;;;;;;10.27;4.53;;;6.60;99.90;;;;;;4214796;28;20291;-79
2023/12/17 09:57:30;;;;;;;9.00;4.67;;;6.60;99.90;;;;;;4213287;28;20479;-77
2023/12/17 09:59:32;;;;;;;8.30;4.20;;;6.60;99.90;;;;;;4214358;28;20742;-77
2023/12/17 10:01:35;;;;;;;10.13;4.70;;;6.50;99.90;;;;;;4214097;28;21147;-78
2023/12/17 10:03:37;;;;;;;9.13;4.50;;;6.60;99.90;;;;;;4211654;28;20279;-78
2023/12/17 10:05:38;;;;;;;7.03;4.30;;;6.60;99.90;;;;;;4212318;28;20447;-77
2023/12/17 10:07:40;;;;;;;7.17;4.57;;;6.60;99.90;;;;;;4212552;28;20819;-75
2023/12/17 10:09:42;;;;;;;9.03;4.97;;;6.60;99.90;;;;;;4211626;28;20818;-75
2023/12/17 10:11:44;;;;;;;6.87;4.13;;;6.50;99.90;;;;;;4216634;28;20704;-76
2023/12/17 10:13:46;;;;;;;5.97;4.00;;;6.50;99.90;;;;;;4209849;28;20481;-77
2023/12/17 10:15:49;;;;;;;7.07;4.13;;;6.50;99.90;;;;;;4212879;28;20757;-77
2023/12/17 10:17:52;;;;;;;7.93;4.37;;;6.50;99.90;;;;;;4214807;28;20829;-75
2023/12/17 10:19:54;;;;;;;8.47;3.97;;;6.50;99.90;;;;;;4211907;28;20486;-75
2023/12/17 10:21:56;;;;;;;6.23;3.67;;;6.60;99.90;;;;;;4213264;28;20523;-75
2023/12/17 10:23:58;;;;;;;7.33;3.83;;;6.60;99.90;;;;;;4209750;28;21146;-76
2023/12/17 10:26:03;;;;;;;6.33;3.77;;;6.60;99.90;;;;;;4211274;28;20481;-74
2023/12/17 10:28:05;;;;;;;7.00;3.63;;;6.50;99.90;;;;;;4210072;28;20585;-76
2023/12/17 10:30:08;;;;;;;7.07;3.50;;;6.60;99.90;;;;;;4211750;28;20499;-76
2023/12/17 10:32:11;;;;;;;6.87;4.03;;;6.60;99.90;;;;;;4210279;28;20588;-74
2023/12/17 10:34:18;;;;;;;6.93;3.67;;;6.60;99.90;;;;;;4214229;28;20209;-74
2023/12/17 10:36:21;;;;;;;5.67;3.80;;;6.60;99.90;;;;;;4211505;28;20631;-72
2023/12/17 10:38:24;;;;;;;8.07;3.60;;;6.60;99.90;;;;;;4212497;28;20449;-74
2023/12/17 10:40:26;;;;;;;6.60;3.67;;;6.60;99.90;;;;;;4213467;28;20205;-75
2023/12/17 10:42:30;;;;;;;8.60;4.03;;;6.70;99.90;;;;;;4212333;28;20933;-73